Alcalde, New Mexico
Current Conditions -  °F | °C
As of 5:15 PM on Monday 24 Nov 2014 (Local Time) from KLAM Reporting Station
Scattered Clouds Scattered Clouds  
Wind Chill: 18°   Ceiling: Unl
Heat Index: 25°   Visibility: 10mi
Dew Point: 22°   Wind: 6mph
Humidity: 89%   Direction: 40°NE
Pressure: 30.15"   Gusts: NA
Location:  36.09°N, 106.06°W
Report Text: KLAM 250015Z AUTO 04005KT 10SM SCT012 SCT025 SCT060 M04/M06 A3015 RMK AO2 T10401056
Loading
Personal Weather Stations






























Interactive Weather Map New forecast layout! Learn more

10-Day Weather Forecast

Advertisements
Track Severe Weather on mobile